Mt Rainier
Paradise
Latest observation 09/03 18:00 PDT
| Time (PDT) | Temp °F 5400' | RH % 5400' | Min mph 5380' | Spd mph 5380' | Gust mph 5380' | Dir ° 5380' | Pcp1 in 5400' | PcpSum in 5400' | 24Sno in 5400' | SnoHt in 5400' | SR W/m² 5380' |
|---|---|---|---|---|---|---|---|---|---|---|---|
| 09/03 18:00 | 41 | 99 | 0 | 0 | 0 | 267 | 0.00 | 0.40 | 14.6 | 1.7 | 2874 |
| 09/03 17:00 | 41 | 95 | 0 | 1 | 5 | 265 | 0.00 | 0.40 | 16.4 | 2.8 | 2888 |
| 09/03 16:00 | 41 | 85 | 0 | 2 | 5 | 295 | 0.00 | 0.40 | 15.1 | 4.4 | 2963 |
| 09/03 15:00 | 41 | 98 | 0 | 1 | 6 | 269 | 0.04 | 0.40 | 13.4 | 4.7 | 2914 |
| 09/03 14:00 | 40 | 97 | 0 | 2 | 7 | 261 | 0.00 | 0.36 | 16.4 | 3.2 | 2945 |
| 09/03 13:00 | 40 | 97 | 0 | 2 | 8 | 298 | 0.00 | 0.36 | 14.6 | 4.6 | 2912 |
| 09/03 12:00 | 38 | 98 | 0 | 1 | 4 | 292 | 0.02 | 0.36 | 13.4 | 5.0 | 2893 |
| 09/03 11:00 | 37 | 96 | 0 | 1 | 4 | 317 | 0.07 | 0.34 | 13.4 | 5.0 | 2841 |
| 09/03 10:00 | 38 | 100 | 0 | 2 | 7 | 297 | 0.01 | 0.27 | 14.3 | 4.9 | 2823 |
| 09/03 09:00 | 37 | 100 | 0 | 2 | 5 | 324 | 0.04 | 0.26 | 16.7 | 4.7 | 2726 |
| 09/03 08:00 | 36 | 100 | 0 | 2 | 7 | 315 | 0.04 | 0.22 | 13.8 | 5.0 | 2668 |
| 09/03 07:00 | 36 | 100 | 0 | 2 | 4 | 310 | 0.03 | 0.18 | 13.4 | 4.4 | 2273 |
| 09/03 06:00 | 36 | 100 | 0 | 1 | 4 | 284 | 0.02 | 0.15 | 14.6 | 4.9 | 521 |
| 09/03 05:00 | 36 | 100 | 0 | 3 | 8 | 269 | 0.00 | 0.13 | 13.6 | 4.4 | 507 |
| 09/03 04:00 | 36 | 100 | 2 | 6 | 10 | 274 | 0.01 | 0.13 | 13.0 | 5.0 | 501 |
| 09/03 03:00 | 36 | 100 | 2 | 5 | 11 | 261 | 0.00 | 0.12 | 13.4 | 4.9 | 497 |
| 09/03 02:00 | 36 | 100 | 4 | 7 | 13 | 264 | 0.00 | 0.12 | 13.8 | 4.6 | 372 |
| 09/03 01:00 | 35 | 100 | 4 | 8 | 16 | 273 | 0.00 | 0.12 | 13.3 | 4.8 | 216 |
| 09/03 00:00 | 36 | 100 | 2 | 8 | 16 | 266 | 0.01 | 0.12 | 14.3 | 4.9 | 220 |
| 09/02 23:00 | 36 | 100 | 3 | 5 | 7 | 265 | 0.00 | 0.11 | 13.4 | 4.6 | 250 |
| 09/02 22:00 | 37 | 100 | 0 | 5 | 8 | 277 | 0.00 | 0.11 | 12.7 | 4.7 | 317 |
| 09/02 21:00 | 38 | 100 | 0 | 4 | 10 | 263 | 0.01 | 0.11 | 15.5 | 4.5 | 857 |
| 09/02 20:00 | 40 | 100 | 0 | 6 | 19 | 274 | 0.01 | 0.10 | 13.1 | 4.9 | 2390 |
| 09/02 19:00 | 42 | 100 | 0 | 0 | 3 | 272 | 0.09 | 0.09 | 14.8 | 4.3 | 2654 |

